createdAt,value
2018-02-18T00:02:25.020Z,-0.90
2018-02-18T00:04:51.228Z,-0.90
2018-02-18T00:07:18.209Z,-0.90
2018-02-18T00:09:44.428Z,-1.00
2018-02-18T00:12:10.694Z,-0.90
2018-02-18T00:14:43.055Z,-1.00
2018-02-18T00:17:09.273Z,-1.00
2018-02-18T00:19:35.493Z,-1.00
2018-02-18T00:22:01.695Z,-1.00
2018-02-18T00:24:35.739Z,-1.00
2018-02-18T00:27:01.937Z,-1.00
2018-02-18T00:29:28.905Z,-1.00
2018-02-18T00:31:55.122Z,-1.00
2018-02-18T00:34:22.083Z,-1.00
2018-02-18T00:36:48.356Z,-1.10
2018-02-18T00:39:14.551Z,-1.00
2018-02-18T00:41:40.804Z,-1.00
2018-02-18T00:44:07.008Z,-1.00
2018-02-18T00:46:33.229Z,-1.00
2018-02-18T00:48:59.601Z,-1.00
2018-02-18T00:51:25.828Z,-1.10
2018-02-18T00:53:52.030Z,-1.00
2018-02-18T00:56:18.273Z,-1.10
2018-02-18T00:58:45.244Z,-1.00
2018-02-18T01:01:11.559Z,-1.10
2018-02-18T01:03:37.793Z,-1.00
2018-02-18T01:06:03.992Z,-1.00
2018-02-18T01:08:30.213Z,-1.00
2018-02-18T01:10:57.163Z,-1.00
2018-02-18T01:13:24.191Z,-1.00
2018-02-18T01:15:50.386Z,-1.10
2018-02-18T01:18:16.609Z,-1.00
2018-02-18T01:20:42.843Z,-1.10
2018-02-18T01:23:09.046Z,-1.10
2018-02-18T01:25:35.288Z,-1.10
2018-02-18T01:28:01.496Z,-1.10
2018-02-18T01:30:27.722Z,-1.10
2018-02-18T01:32:53.967Z,-1.20
2018-02-18T01:35:20.165Z,-1.20
2018-02-18T01:37:47.142Z,-1.10
2018-02-18T01:40:13.348Z,-1.20
2018-02-18T01:42:40.335Z,-1.20
2018-02-18T01:45:06.553Z,-1.20
2018-02-18T01:47:33.761Z,-1.20
2018-02-18T01:50:00.021Z,-1.20
2018-02-18T01:52:26.250Z,-1.20
2018-02-18T01:54:52.446Z,-1.20
2018-02-18T01:57:18.699Z,-1.20
2018-02-18T01:59:45.651Z,-1.20
2018-02-18T02:02:12.675Z,-1.20
2018-02-18T02:04:38.880Z,-1.20
2018-02-18T02:07:05.105Z,-1.20
2018-02-18T02:09:31.302Z,-1.20
2018-02-18T02:11:57.529Z,-1.20
2018-02-18T02:14:23.742Z,-1.20
2018-02-18T02:16:50.711Z,-1.20
2018-02-18T02:19:16.914Z,-1.20
2018-02-18T02:21:43.877Z,-1.20
2018-02-18T02:24:10.086Z,-1.20
2018-02-18T02:26:37.060Z,-1.20
2018-02-18T02:29:03.265Z,-1.20
2018-02-18T02:31:30.232Z,-1.20
2018-02-18T02:33:56.445Z,-1.20
2018-02-18T02:36:23.442Z,-1.20
2018-02-18T02:38:49.691Z,-1.20
2018-02-18T02:41:15.921Z,-1.20
2018-02-18T02:43:42.137Z,-1.20
2018-02-18T02:46:08.389Z,-1.20
2018-02-18T02:48:34.600Z,-1.20
2018-02-18T02:51:00.821Z,-1.20
2018-02-18T02:53:27.033Z,-1.20
2018-02-18T02:55:53.270Z,-1.20
2018-02-18T02:58:19.484Z,-1.20
2018-02-18T03:00:45.716Z,-1.20
2018-02-18T03:03:11.924Z,-1.20
2018-02-18T03:05:38.892Z,-1.20
2018-02-18T03:08:05.103Z,-1.30
2018-02-18T03:10:32.086Z,-1.20
2018-02-18T03:12:58.285Z,-1.30
2018-02-18T03:15:24.518Z,-1.20
2018-02-18T03:17:50.718Z,-1.20
2018-02-18T03:20:17.053Z,-1.20
2018-02-18T03:22:43.256Z,-1.20
2018-02-18T03:25:09.479Z,-1.20
2018-02-18T03:27:35.795Z,-1.20
2018-02-18T03:30:02.018Z,-1.20
2018-02-18T03:32:28.232Z,-1.20
2018-02-18T03:34:54.438Z,-1.20
2018-02-18T03:37:21.409Z,-1.20
2018-02-18T03:39:47.642Z,-1.20
2018-02-18T03:42:13.871Z,-1.20
2018-02-18T03:44:40.069Z,-1.20
2018-02-18T03:47:06.296Z,-1.20
2018-02-18T03:49:32.494Z,-1.20
2018-02-18T03:51:58.688Z,-1.20
2018-02-18T03:54:24.918Z,-1.20
2018-02-18T03:56:51.158Z,-1.20
2018-02-18T03:59:17.367Z,-1.20
2018-02-18T04:01:44.388Z,-1.20
2018-02-18T04:04:10.584Z,-1.20
2018-02-18T04:06:36.807Z,-1.20
2018-02-18T04:09:03.079Z,-1.20
2018-02-18T04:11:29.291Z,-1.20
2018-02-18T04:13:55.512Z,-1.20
2018-02-18T04:16:21.718Z,-1.20
2018-02-18T04:18:47.948Z,-1.20
2018-02-18T04:21:14.150Z,-1.20
2018-02-18T04:23:41.128Z,-1.20
2018-02-18T04:26:07.354Z,-1.20
2018-02-18T04:28:33.558Z,-1.20
2018-02-18T04:31:00.530Z,-1.20
2018-02-18T04:33:26.736Z,-1.20
2018-02-18T04:35:53.721Z,-1.20
2018-02-18T04:38:19.940Z,-1.30
2018-02-18T04:40:46.166Z,-1.30
2018-02-18T04:43:12.400Z,-1.30
2018-02-18T04:45:38.608Z,-1.30
2018-02-18T04:48:04.824Z,-1.30
2018-02-18T04:50:31.786Z,-1.30
2018-02-18T04:52:58.030Z,-1.30
2018-02-18T04:55:24.257Z,-1.30
2018-02-18T04:57:50.520Z,-1.30
2018-02-18T05:00:16.741Z,-1.30
2018-02-18T05:02:42.974Z,-1.20
2018-02-18T05:05:10.826Z,-1.20
2018-02-18T05:07:37.029Z,-1.30
2018-02-18T05:10:03.259Z,-1.20
2018-02-18T05:12:29.481Z,-1.20
2018-02-18T05:14:56.493Z,-1.20
2018-02-18T05:17:22.700Z,-1.20
2018-02-18T05:19:48.929Z,-1.20
2018-02-18T05:22:15.156Z,-1.20
2018-02-18T05:24:41.359Z,-1.20
2018-02-18T05:27:07.587Z,-1.20
2018-02-18T05:29:33.790Z,-1.20
2018-02-18T05:32:00.021Z,-1.20
2018-02-18T05:34:32.349Z,-1.20
2018-02-18T05:36:58.608Z,-1.20
2018-02-18T05:39:24.918Z,-1.20
2018-02-18T05:41:51.133Z,-1.10
2018-02-18T05:44:17.359Z,-1.20
2018-02-18T05:46:43.559Z,-1.20
2018-02-18T05:49:10.532Z,-1.20
2018-02-18T05:51:36.732Z,-1.20
2018-02-18T05:54:03.710Z,-1.20
2018-02-18T05:56:29.942Z,-1.20
2018-02-18T05:59:03.073Z,-1.20
2018-02-18T06:01:29.270Z,-1.20
2018-02-18T06:03:55.493Z,-1.20
2018-02-18T06:06:21.836Z,-1.20
2018-02-18T06:08:48.040Z,-1.20
2018-02-18T06:11:14.265Z,-1.20
2018-02-18T06:13:40.468Z,-1.10
2018-02-18T06:16:06.689Z,-1.20
2018-02-18T06:18:32.885Z,-1.10
2018-02-18T06:20:59.101Z,-1.10
2018-02-18T06:23:25.334Z,-1.10
2018-02-18T06:25:51.534Z,-1.10
2018-02-18T06:28:18.497Z,-1.10
2018-02-18T06:30:44.713Z,-1.10
2018-02-18T06:33:10.928Z,-1.10
2018-02-18T06:35:37.885Z,-1.10
2018-02-18T06:38:04.838Z,-1.10
2018-02-18T06:40:31.052Z,-1.10
2018-02-18T06:42:57.989Z,-1.10
2018-02-18T06:45:24.213Z,-1.10
2018-02-18T06:47:50.414Z,-1.00
2018-02-18T06:50:16.688Z,-1.00
2018-02-18T06:52:42.881Z,-1.00
2018-02-18T06:55:09.096Z,-1.00
2018-02-18T06:57:35.449Z,-0.90
2018-02-18T07:00:01.658Z,-0.90
2018-02-18T07:02:27.885Z,-0.90
2018-02-18T07:04:54.096Z,-0.90
2018-02-18T07:07:20.298Z,-0.90
2018-02-18T07:09:47.273Z,-0.80
2018-02-18T07:12:13.535Z,-0.80
2018-02-18T07:14:39.764Z,-0.70
2018-02-18T07:17:05.998Z,-0.70
2018-02-18T07:19:32.212Z,-0.60
2018-02-18T07:21:58.434Z,-0.50
2018-02-18T07:24:24.632Z,-0.50
2018-02-18T07:26:51.609Z,-0.50
2018-02-18T07:29:17.806Z,-0.60
2018-02-18T07:31:44.763Z,-0.40
2018-02-18T07:34:10.956Z,-0.50
2018-02-18T07:36:37.173Z,-0.30
2018-02-18T07:39:03.470Z,-0.30
2018-02-18T07:41:29.697Z,-0.30
2018-02-18T07:43:55.922Z,-0.20
2018-02-18T07:46:22.166Z,-0.20
2018-02-18T07:48:48.385Z,-0.10
2018-02-18T07:51:14.581Z,0.00
2018-02-18T07:53:41.552Z,0.10
2018-02-18T07:56:07.821Z,0.00
2018-02-18T07:58:34.040Z,0.10
2018-02-18T08:01:00.256Z,0.10
2018-02-18T08:03:26.458Z,0.20
2018-02-18T08:05:53.417Z,0.10
2018-02-18T08:08:19.644Z,0.10
2018-02-18T08:10:45.867Z,0.20
2018-02-18T08:13:12.829Z,0.40
2018-02-18T08:15:39.030Z,0.30
2018-02-18T08:18:05.993Z,0.40
2018-02-18T08:20:32.929Z,0.40
2018-02-18T08:22:59.892Z,0.40
2018-02-18T08:25:26.096Z,0.40
2018-02-18T08:27:53.081Z,0.50
2018-02-18T08:30:19.276Z,0.40
2018-02-18T08:32:46.254Z,0.60
2018-02-18T08:35:12.447Z,0.50
2018-02-18T08:37:38.730Z,0.60
2018-02-18T08:40:04.955Z,0.70
2018-02-18T08:42:31.185Z,0.70
2018-02-18T08:44:57.411Z,0.90
2018-02-18T08:47:23.611Z,1.00
2018-02-18T08:49:50.574Z,1.30
2018-02-18T08:52:16.769Z,1.20
2018-02-18T08:54:43.085Z,1.40
2018-02-18T08:57:09.300Z,1.50
2018-02-18T08:59:35.530Z,1.60
2018-02-18T09:02:01.739Z,1.70
2018-02-18T09:04:27.960Z,1.80
2018-02-18T09:06:54.172Z,1.90
2018-02-18T09:09:21.137Z,2.00
2018-02-18T09:11:47.366Z,2.00
2018-02-18T09:14:13.572Z,2.10
2018-02-18T09:16:40.542Z,2.30
2018-02-18T09:19:06.748Z,2.30
2018-02-18T09:21:32.994Z,2.40
2018-02-18T09:23:59.197Z,2.40
2018-02-18T09:26:26.189Z,2.00
2018-02-18T09:28:52.410Z,2.00
2018-02-18T09:31:18.600Z,2.10
2018-02-18T09:33:44.897Z,2.40
2018-02-18T09:36:11.119Z,2.40
2018-02-18T09:38:37.366Z,2.80
2018-02-18T09:41:03.562Z,2.80
2018-02-18T09:43:29.813Z,2.80
2018-02-18T09:45:56.012Z,2.50
2018-02-18T09:48:22.341Z,2.40
2018-02-18T09:50:48.573Z,2.60
2018-02-18T09:53:14.923Z,2.70
2018-02-18T09:55:41.169Z,2.80
2018-02-18T09:58:07.389Z,2.80
2018-02-18T10:00:33.612Z,2.90
2018-02-18T10:02:59.838Z,3.10
2018-02-18T10:05:26.043Z,3.10
2018-02-18T10:07:52.996Z,3.20
2018-02-18T10:10:19.214Z,3.20
2018-02-18T10:12:46.180Z,3.20
2018-02-18T10:15:12.380Z,3.20
2018-02-18T10:17:39.340Z,3.20
2018-02-18T10:20:06.273Z,3.10
2018-02-18T10:22:33.251Z,3.00
2018-02-18T10:24:59.477Z,2.90
2018-02-18T10:27:25.674Z,2.80
2018-02-18T10:29:51.897Z,2.80
2018-02-18T10:32:18.096Z,2.60
2018-02-18T10:34:44.325Z,2.70
2018-02-18T10:37:10.525Z,2.70
2018-02-18T10:39:36.756Z,3.00
2018-02-18T10:42:02.996Z,3.50
2018-02-18T10:44:29.231Z,3.50
2018-02-18T10:46:55.437Z,3.60
2018-02-18T10:49:21.660Z,3.70
2018-02-18T10:51:48.661Z,4.00
2018-02-18T10:54:14.857Z,4.00
2018-02-18T10:56:41.086Z,3.70
2018-02-18T10:59:07.320Z,3.70
2018-02-18T11:01:33.555Z,4.00
2018-02-18T11:03:59.754Z,4.30
2018-02-18T11:06:25.989Z,4.20
2018-02-18T11:08:52.949Z,4.30
2018-02-18T11:11:19.152Z,4.20
2018-02-18T11:13:46.117Z,4.00
2018-02-18T11:16:12.317Z,4.00
2018-02-18T11:18:38.533Z,4.00
2018-02-18T11:21:04.772Z,4.00
2018-02-18T11:23:30.997Z,4.30
2018-02-18T11:25:57.216Z,4.10
2018-02-18T11:28:23.430Z,4.30
2018-02-18T11:30:49.689Z,3.90
2018-02-18T11:33:15.905Z,4.10
2018-02-18T11:35:42.132Z,4.30
2018-02-18T11:38:08.342Z,4.60
2018-02-18T11:40:34.563Z,4.60
2018-02-18T11:43:00.786Z,4.80
2018-02-18T11:45:26.981Z,4.80
2018-02-18T11:47:54.079Z,4.50
2018-02-18T11:50:20.268Z,4.50
2018-02-18T11:52:47.229Z,4.60
2018-02-18T11:55:13.441Z,4.50
2018-02-18T11:57:40.483Z,4.80
2018-02-18T12:00:06.726Z,4.80
2018-02-18T12:02:33.671Z,4.90
2018-02-18T12:05:00.647Z,5.10
2018-02-18T12:07:26.846Z,5.00
2018-02-18T12:09:53.833Z,5.10
2018-02-18T12:12:20.033Z,5.10
2018-02-18T12:14:46.258Z,4.80
2018-02-18T12:17:13.193Z,3.90
2018-02-18T12:19:40.155Z,3.40
2018-02-18T12:22:06.378Z,3.40
2018-02-18T12:24:33.391Z,2.60
2018-02-18T12:26:59.641Z,2.60
2018-02-18T12:29:25.872Z,2.30
2018-02-18T12:31:52.110Z,2.30
2018-02-18T12:34:19.082Z,2.70
2018-02-18T12:36:45.359Z,2.60
2018-02-18T12:39:11.578Z,3.40
2018-02-18T12:41:37.821Z,4.20
2018-02-18T12:44:04.249Z,4.40
2018-02-18T12:46:30.474Z,4.10
2018-02-18T12:48:56.764Z,4.20
2018-02-18T12:51:23.123Z,4.40
2018-02-18T12:53:49.421Z,4.10
2018-02-18T12:56:15.626Z,4.10
2018-02-18T12:58:41.943Z,3.50
2018-02-18T13:01:08.201Z,3.40
2018-02-18T13:03:35.192Z,3.10
2018-02-18T13:06:01.466Z,3.00
2018-02-18T13:08:27.677Z,2.90
2018-02-18T13:10:53.970Z,3.00
2018-02-18T13:13:20.181Z,3.20
2018-02-18T13:15:47.246Z,3.60
2018-02-18T13:18:14.217Z,3.80
2018-02-18T13:20:40.434Z,3.80
2018-02-18T13:23:06.733Z,3.70
2018-02-18T13:25:33.685Z,3.70
2018-02-18T13:27:59.926Z,3.60
2018-02-18T13:30:26.145Z,3.40
2018-02-18T13:32:53.115Z,3.60
2018-02-18T13:35:19.357Z,3.50
2018-02-18T13:37:45.645Z,3.50
2018-02-18T13:40:11.861Z,3.50
2018-02-18T13:42:38.062Z,3.50
2018-02-18T13:45:04.293Z,3.40
2018-02-18T13:47:30.489Z,3.30
2018-02-18T13:49:56.690Z,3.60
2018-02-18T13:52:23.662Z,3.50
2018-02-18T13:54:49.885Z,3.50
2018-02-18T13:57:16.111Z,3.40
2018-02-18T13:59:42.345Z,3.30
2018-02-18T14:02:15.682Z,3.00
2018-02-18T14:04:41.935Z,3.10
2018-02-18T14:07:08.165Z,3.00
2018-02-18T14:09:34.381Z,2.80
2018-02-18T14:12:00.581Z,2.90
2018-02-18T14:14:26.806Z,3.00
2018-02-18T14:16:53.012Z,2.80
2018-02-18T14:19:19.239Z,2.70
2018-02-18T14:21:46.199Z,2.30
2018-02-18T14:24:12.399Z,2.20
2018-02-18T14:26:39.395Z,2.30
2018-02-18T14:29:05.671Z,2.20
2018-02-18T14:31:31.898Z,2.20
2018-02-18T14:33:58.105Z,2.30
2018-02-18T14:36:24.333Z,2.10
2018-02-18T14:38:50.576Z,2.10
2018-02-18T14:41:22.736Z,2.10
2018-02-18T14:43:55.001Z,2.10
2018-02-18T14:46:27.375Z,2.00
2018-02-18T14:48:59.806Z,2.00
2018-02-18T14:51:32.821Z,2.00
2018-02-18T14:54:05.245Z,2.00
2018-02-18T14:56:37.590Z,2.00
2018-02-18T14:59:03.840Z,1.90
2018-02-18T15:01:30.068Z,1.70
2018-02-18T15:03:56.289Z,1.90
2018-02-18T15:06:22.489Z,1.70
2018-02-18T15:08:48.749Z,1.70
2018-02-18T15:11:15.010Z,1.80
2018-02-18T15:13:41.952Z,1.80
2018-02-18T15:16:08.165Z,1.80
2018-02-18T15:18:34.401Z,1.70
2018-02-18T15:21:00.653Z,1.50
2018-02-18T15:23:27.617Z,1.30
2018-02-18T15:25:53.844Z,1.20
2018-02-18T15:28:20.053Z,1.30
2018-02-18T15:30:47.029Z,1.20
2018-02-18T15:33:13.269Z,1.10
2018-02-18T15:35:39.465Z,1.20
2018-02-18T15:38:06.429Z,1.00
2018-02-18T15:40:32.643Z,1.00
2018-02-18T15:42:59.609Z,1.00
2018-02-18T15:45:25.814Z,1.00
2018-02-18T15:47:52.831Z,1.00
2018-02-18T15:50:19.037Z,0.90
2018-02-18T15:52:45.256Z,1.00
2018-02-18T15:55:11.473Z,1.00
2018-02-18T15:57:37.700Z,0.90
2018-02-18T16:00:03.935Z,0.90
2018-02-18T16:02:30.145Z,0.90
2018-02-18T16:04:57.107Z,0.80
2018-02-18T16:07:24.074Z,0.80
2018-02-18T16:09:50.337Z,0.70
2018-02-18T16:12:16.581Z,0.70
2018-02-18T16:14:42.873Z,0.60
2018-02-18T16:17:09.151Z,0.60
2018-02-18T16:19:36.109Z,0.50
2018-02-18T16:22:03.092Z,0.50
2018-02-18T16:24:29.308Z,0.50
2018-02-18T16:26:55.577Z,0.50
2018-02-18T16:29:21.805Z,0.40
2018-02-18T16:31:48.020Z,0.40
2018-02-18T16:34:14.252Z,0.40
2018-02-18T16:36:40.452Z,0.40
2018-02-18T16:39:06.682Z,0.30
2018-02-18T16:41:32.895Z,0.30
2018-02-18T16:43:59.869Z,0.20
2018-02-18T16:46:26.072Z,0.20
2018-02-18T16:48:53.036Z,0.10
2018-02-18T16:51:19.249Z,0.10
2018-02-18T16:53:46.219Z,0.00
2018-02-18T16:56:12.448Z,0.00
2018-02-18T16:58:38.658Z,0.00
2018-02-18T17:01:04.897Z,0.00
2018-02-18T17:03:31.104Z,0.00
2018-02-18T17:05:58.069Z,-0.10
2018-02-18T17:08:25.021Z,-0.20
2018-02-18T17:10:51.261Z,-0.30
2018-02-18T17:13:17.470Z,-0.30
2018-02-18T17:15:44.466Z,-0.60
2018-02-18T17:18:10.697Z,-0.60
2018-02-18T17:20:36.916Z,-0.70
2018-02-18T17:23:03.141Z,-0.90
2018-02-18T17:25:29.422Z,-1.00
2018-02-18T17:27:56.399Z,-1.20
2018-02-18T17:30:22.606Z,-1.20
2018-02-18T17:32:49.573Z,-1.30
2018-02-18T17:35:15.777Z,-1.30
2018-02-18T17:37:41.987Z,-1.40
2018-02-18T17:40:08.262Z,-1.50
2018-02-18T17:42:34.493Z,-1.60
2018-02-18T17:45:00.724Z,-1.60
2018-02-18T17:47:26.914Z,-1.60
2018-02-18T17:49:53.145Z,-1.70
2018-02-18T17:52:19.349Z,-1.70
2018-02-18T17:54:45.600Z,-1.80
2018-02-18T17:57:11.833Z,-1.80
2018-02-18T17:59:38.062Z,-1.90
2018-02-18T18:04:37.857Z,-2.00
2018-02-18T18:07:04.269Z,-2.00
2018-02-18T18:09:30.476Z,-1.90
2018-02-18T18:11:57.498Z,-1.90
2018-02-18T18:14:23.753Z,-2.00
2018-02-18T18:16:50.049Z,-2.10
2018-02-18T18:19:17.302Z,-2.20
2018-02-18T18:21:43.521Z,-2.30
2018-02-18T18:24:09.773Z,-2.40
2018-02-18T18:26:36.077Z,-2.50
2018-02-18T18:29:02.472Z,-2.60
2018-02-18T18:31:30.249Z,-2.70
2018-02-18T18:33:56.522Z,-2.70
2018-02-18T18:36:22.766Z,-2.60
2018-02-18T18:38:48.996Z,-2.70
2018-02-18T18:41:15.278Z,-2.60
2018-02-18T18:43:41.502Z,-2.50
2018-02-18T18:46:07.728Z,-2.60
2018-02-18T18:48:33.987Z,-2.50
2018-02-18T18:51:00.728Z,-2.50
2018-02-18T18:53:31.551Z,-2.60
2018-02-18T18:56:03.118Z,-2.60
2018-02-18T18:58:31.661Z,-2.60
2018-02-18T19:01:00.446Z,-2.70
2018-02-18T19:03:29.143Z,-2.70
2018-02-18T19:05:57.520Z,-2.70
2018-02-18T19:08:26.095Z,-2.80
2018-02-18T19:10:58.180Z,-2.80
2018-02-18T19:13:31.204Z,-2.80
2018-02-18T19:15:59.465Z,-2.80
2018-02-18T19:18:27.696Z,-2.80
2018-02-18T19:20:53.981Z,-2.80
2018-02-18T19:23:20.230Z,-2.80
2018-02-18T19:25:46.462Z,-2.80
2018-02-18T19:28:12.691Z,-2.90
2018-02-18T19:30:38.932Z,-2.70
2018-02-18T19:33:05.176Z,-2.70
2018-02-18T19:35:31.406Z,-2.80
2018-02-18T19:37:57.617Z,-2.80
2018-02-18T19:40:23.884Z,-2.70
2018-02-18T19:42:50.118Z,-2.70
2018-02-18T19:45:17.071Z,-2.80
2018-02-18T19:47:44.076Z,-2.80
2018-02-18T19:50:10.282Z,-2.90
2018-02-18T19:52:36.637Z,-2.80
2018-02-18T19:55:02.859Z,-2.90
2018-02-18T19:57:29.076Z,-2.90
2018-02-18T19:59:55.277Z,-3.00
2018-02-18T20:02:22.257Z,-2.90
2018-02-18T20:04:48.484Z,-3.00
2018-02-18T20:07:14.698Z,-2.90
2018-02-18T20:09:40.948Z,-2.90
2018-02-18T20:12:07.177Z,-2.90
2018-02-18T20:14:33.405Z,-3.00
2018-02-18T20:16:59.609Z,-3.00
2018-02-18T20:19:25.832Z,-3.00
2018-02-18T20:21:52.102Z,-3.00
2018-02-18T20:24:19.125Z,-3.00
2018-02-18T20:26:45.354Z,-3.10
2018-02-18T20:29:11.633Z,-3.00
2018-02-18T20:31:37.835Z,-3.10
2018-02-18T20:34:04.119Z,-3.10
2018-02-18T20:36:31.078Z,-3.10
2018-02-18T20:38:58.026Z,-3.20
2018-02-18T20:41:24.996Z,-3.20
2018-02-18T20:43:51.217Z,-3.30
2018-02-18T20:46:18.280Z,-3.30
2018-02-18T20:48:44.493Z,-3.30
2018-02-18T20:51:12.157Z,-3.40
2018-02-18T20:53:38.358Z,-3.40
2018-02-18T20:56:05.469Z,-3.40
2018-02-18T20:58:31.718Z,-3.50
2018-02-18T21:00:57.940Z,-3.40
2018-02-18T21:03:24.197Z,-3.50
2018-02-18T21:05:50.413Z,-3.50
2018-02-18T21:08:16.626Z,-3.40
2018-02-18T21:10:42.866Z,-3.40
2018-02-18T21:13:09.086Z,-3.40
2018-02-18T21:15:35.314Z,-3.30
2018-02-18T21:18:01.546Z,-3.30
2018-02-18T21:20:27.759Z,-3.20
2018-02-18T21:22:53.990Z,-3.30
2018-02-18T21:25:20.206Z,-3.30
2018-02-18T21:27:46.460Z,-3.40
2018-02-18T21:30:12.673Z,-3.50
2018-02-18T21:32:38.897Z,-3.50
2018-02-18T21:35:05.105Z,-3.60
2018-02-18T21:37:32.069Z,-3.70
2018-02-18T21:39:58.267Z,-3.80
2018-02-18T21:42:25.235Z,-3.80
2018-02-18T21:44:51.460Z,-3.80
2018-02-18T21:47:17.652Z,-3.80
2018-02-18T21:49:43.887Z,-3.80
2018-02-18T21:52:10.093Z,-3.80
2018-02-18T21:54:36.326Z,-3.80
2018-02-18T21:57:02.534Z,-3.90
2018-02-18T21:59:28.768Z,-3.90
2018-02-18T22:01:54.968Z,-4.00
2018-02-18T22:04:21.208Z,-4.10
2018-02-18T22:06:47.468Z,-4.20
2018-02-18T22:09:13.692Z,-4.20
2018-02-18T22:11:39.958Z,-4.30
2018-02-18T22:14:06.155Z,-4.30
2018-02-18T22:16:32.372Z,-4.40
2018-02-18T22:18:58.609Z,-4.30
2018-02-18T22:21:24.839Z,-4.30
2018-02-18T22:23:51.072Z,-4.30
2018-02-18T22:26:17.289Z,-4.20
2018-02-18T22:28:43.536Z,-4.10
2018-02-18T22:31:09.737Z,-4.10
2018-02-18T22:33:35.979Z,-4.00
2018-02-18T22:36:02.184Z,-4.00
2018-02-18T22:38:29.149Z,-4.00
2018-02-18T22:40:55.353Z,-4.10
2018-02-18T22:43:22.312Z,-4.10
2018-02-18T22:45:48.514Z,-4.20
2018-02-18T22:48:15.485Z,-4.20
2018-02-18T22:50:41.738Z,-4.30
2018-02-18T22:53:08.017Z,-4.30
2018-02-18T22:55:34.233Z,-4.30
2018-02-18T22:58:00.433Z,-4.40
2018-02-18T23:00:26.656Z,-4.40
2018-02-18T23:02:52.859Z,-4.40
2018-02-18T23:05:25.852Z,-4.50
2018-02-18T23:07:52.790Z,-4.50
2018-02-18T23:10:19.761Z,-4.50
2018-02-18T23:12:45.981Z,-4.50
2018-02-18T23:15:12.180Z,-4.60
2018-02-18T23:17:38.400Z,-4.50
2018-02-18T23:20:04.597Z,-4.50
2018-02-18T23:22:30.816Z,-4.50
2018-02-18T23:24:57.031Z,-4.50
2018-02-18T23:27:23.257Z,-4.60
2018-02-18T23:29:49.500Z,-4.60
2018-02-18T23:32:15.702Z,-4.60
2018-02-18T23:34:42.659Z,-4.70
2018-02-18T23:37:09.597Z,-4.80
2018-02-18T23:39:36.560Z,-4.80
2018-02-18T23:42:02.773Z,-4.90
2018-02-18T23:44:29.732Z,-5.10
2018-02-18T23:46:55.956Z,-5.10
2018-02-18T23:49:22.896Z,-5.60
2018-02-18T23:51:49.861Z,-6.00
2018-02-18T23:54:16.067Z,-6.10
2018-02-18T23:56:43.032Z,-6.40
2018-02-18T23:59:09.221Z,-6.40
